Time;durP1;ratioP1;P1;durP2;ratioP2;P2;SDS_P1;SDS_P2;PMS_P1;PMS_P2;Temp;Humidity;BMP_temperature;BMP_pressure;BME280_temperature;BME280_humidity;BME280_pressure;Samples;Min_cycle;Max_cycle;Signal;HPM_P1;HPM_P2
2023/07/30 00:02:07;;;;;;;9.30;8.50;;;20.00;99.90;;;;;;4995899;28;20442;-48
2023/07/30 00:04:34;;;;;;;7.60;6.90;;;19.90;99.90;;;;;;4995771;28;20526;-46
2023/07/30 00:07:00;;;;;;;7.57;6.70;;;19.90;99.90;;;;;;4995168;28;20432;-46
2023/07/30 00:09:27;;;;;;;6.50;5.80;;;20.20;99.90;;;;;;4995616;28;21004;-46
2023/07/30 00:11:53;;;;;;;6.63;5.90;;;19.90;99.90;;;;;;4995376;28;20428;-47
2023/07/30 00:14:21;;;;;;;7.00;6.00;;;19.90;99.90;;;;;;4995550;28;20443;-47
2023/07/30 00:16:48;;;;;;;8.40;6.73;;;19.90;99.90;;;;;;4995214;28;20440;-47
2023/07/30 00:19:14;;;;;;;7.80;6.30;;;19.90;99.90;;;;;;4995574;28;20457;-48
2023/07/30 00:21:45;;;;;;;6.20;5.70;;;19.90;99.90;;;;;;4994161;28;20453;-48
2023/07/30 00:24:12;;;;;;;7.30;6.60;;;19.70;99.90;;;;;;4995472;28;20490;-47
2023/07/30 00:26:39;;;;;;;6.30;5.67;;;19.70;99.90;;;;;;4995131;28;20448;-47
2023/07/30 00:29:05;;;;;;;7.13;6.43;;;19.70;99.90;;;;;;4995548;28;20800;-47
2023/07/30 00:31:33;;;;;;;5.40;4.90;;;19.60;99.90;;;;;;4995261;28;20809;-46
2023/07/30 00:34:00;;;;;;;6.20;5.60;;;19.70;99.90;;;;;;4994905;28;20438;-47
2023/07/30 00:36:27;;;;;;;7.93;6.20;;;19.60;99.90;;;;;;4993678;28;20477;-47
2023/07/30 00:38:54;;;;;;;7.47;5.60;;;19.50;99.90;;;;;;4993547;28;20477;-47
2023/07/30 00:41:20;;;;;;;5.73;5.23;;;19.30;99.90;;;;;;4993669;28;20485;-47
2023/07/30 00:43:47;;;;;;;5.60;5.20;;;19.50;99.90;;;;;;4993708;28;20461;-47
2023/07/30 00:46:15;;;;;;;5.77;4.93;;;19.50;99.90;;;;;;4995189;28;20463;-47
2023/07/30 00:48:44;;;;;;;7.00;5.20;;;19.50;99.90;;;;;;4995053;28;20455;-46
2023/07/30 00:51:14;;;;;;;5.50;4.90;;;19.50;99.90;;;;;;4993907;28;21011;-47
2023/07/30 00:53:40;;;;;;;5.10;4.60;;;19.40;99.90;;;;;;4993646;28;20461;-47
2023/07/30 00:56:07;;;;;;;5.50;5.00;;;19.40;99.90;;;;;;4993719;28;20466;-47
2023/07/30 00:58:34;;;;;;;5.60;4.40;;;19.40;99.90;;;;;;4994764;28;20523;-47
2023/07/30 01:01:01;;;;;;;6.23;5.23;;;19.40;99.90;;;;;;4994728;28;20455;-47
2023/07/30 01:03:28;;;;;;;6.70;4.70;;;19.40;99.90;;;;;;4994856;28;20437;-46
2023/07/30 01:05:57;;;;;;;5.80;5.00;;;19.00;99.90;;;;;;4993633;28;20491;-46
2023/07/30 01:08:23;;;;;;;5.40;4.87;;;19.30;99.90;;;;;;4994533;28;20438;-46
2023/07/30 01:10:51;;;;;;;5.63;4.70;;;19.30;99.90;;;;;;4994584;28;20931;-47
2023/07/30 01:13:18;;;;;;;5.83;5.33;;;19.30;99.90;;;;;;4993522;28;20807;-46
2023/07/30 01:15:45;;;;;;;6.47;5.87;;;19.30;99.90;;;;;;4994759;28;20438;-47
2023/07/30 01:18:12;;;;;;;5.33;4.93;;;19.30;99.90;;;;;;4995700;28;20514;-47
2023/07/30 01:20:39;;;;;;;5.27;4.77;;;19.30;99.90;;;;;;4993441;28;20558;-46
2023/07/30 01:23:07;;;;;;;10.63;5.10;;;19.20;99.90;;;;;;4993271;28;20482;-47
2023/07/30 01:25:37;;;;;;;5.90;5.30;;;19.20;99.90;;;;;;4993284;28;20996;-47
2023/07/30 01:28:05;;;;;;;18.33;6.33;;;19.20;99.90;;;;;;4992785;28;20459;-47
2023/07/30 01:30:38;;;;;;;5.10;4.60;;;19.20;99.90;;;;;;4993318;28;20485;-46
2023/07/30 01:33:06;;;;;;;6.20;4.97;;;19.20;99.90;;;;;;4993077;28;20846;-46
2023/07/30 01:35:33;;;;;;;6.50;4.57;;;19.10;99.90;;;;;;4993076;28;20449;-47
2023/07/30 01:38:03;;;;;;;4.70;4.30;;;19.40;99.90;;;;;;4994074;28;20437;-46
2023/07/30 01:40:31;;;;;;;6.47;4.63;;;19.00;99.90;;;;;;4994026;28;20838;-46
2023/07/30 01:42:58;;;;;;;5.80;4.43;;;19.10;99.90;;;;;;4994066;28;20446;-45
2023/07/30 01:45:25;;;;;;;7.90;6.33;;;19.10;99.90;;;;;;4994245;28;20445;-47
2023/07/30 01:47:52;;;;;;;7.60;5.30;;;19.00;99.90;;;;;;4992419;28;20452;-47
2023/07/30 01:50:18;;;;;;;5.30;4.83;;;19.00;99.90;;;;;;4992206;28;20493;-47
2023/07/30 01:52:45;;;;;;;6.33;4.20;;;18.80;99.90;;;;;;4994106;28;20456;-46
2023/07/30 01:55:11;;;;;;;4.80;4.40;;;19.00;99.90;;;;;;4992848;28;20813;-46
2023/07/30 01:57:39;;;;;;;8.70;4.60;;;19.00;99.90;;;;;;4992391;28;20460;-46
2023/07/30 02:00:08;;;;;;;4.53;4.13;;;19.00;99.90;;;;;;4992407;28;20470;-46
2023/07/30 02:02:35;;;;;;;4.87;4.47;;;19.00;99.90;;;;;;4991947;28;20442;-46
2023/07/30 02:05:02;;;;;;;4.60;4.20;;;19.00;99.90;;;;;;4992526;28;20822;-46
2023/07/30 02:07:29;;;;;;;5.80;5.30;;;19.00;99.90;;;;;;4993956;28;20430;-47
2023/07/30 02:09:55;;;;;;;5.90;4.73;;;18.70;99.90;;;;;;4992052;28;20470;-47
2023/07/30 02:12:22;;;;;;;5.07;4.57;;;18.90;99.90;;;;;;4993452;28;20408;-47
2023/07/30 02:14:50;;;;;;;5.57;4.93;;;18.60;99.90;;;;;;4992157;28;20463;-47
2023/07/30 02:17:16;;;;;;;8.13;4.73;;;19.00;99.90;;;;;;4993211;28;20438;-46
2023/07/30 02:19:43;;;;;;;5.97;4.83;;;18.90;99.90;;;;;;4992815;28;20543;-47
2023/07/30 02:22:09;;;;;;;9.50;5.23;;;18.90;99.90;;;;;;4993541;28;20441;-47
2023/07/30 02:24:36;;;;;;;6.53;5.00;;;18.70;99.90;;;;;;4993246;28;20423;-47
2023/07/30 02:27:03;;;;;;;6.87;5.60;;;18.80;99.90;;;;;;4993023;28;20415;-47
2023/07/30 02:29:31;;;;;;;8.43;5.13;;;18.60;99.90;;;;;;4991713;28;20962;-48
2023/07/30 02:32:00;;;;;;;5.63;5.00;;;18.70;99.90;;;;;;4991847;28;20504;-47
2023/07/30 02:34:26;;;;;;;5.83;5.23;;;18.70;99.90;;;;;;4991672;28;20499;-47
2023/07/30 02:36:53;;;;;;;7.23;6.07;;;18.60;99.90;;;;;;4991500;28;20416;-47
2023/07/30 02:39:20;;;;;;;6.47;5.87;;;18.70;99.90;;;;;;4991509;28;20575;-47
2023/07/30 02:41:46;;;;;;;7.50;6.80;;;18.70;99.90;;;;;;4992909;28;20444;-46
2023/07/30 02:44:13;;;;;;;7.50;6.77;;;18.40;99.90;;;;;;4991690;28;20422;-47
2023/07/30 02:46:40;;;;;;;7.20;5.30;;;18.80;99.90;;;;;;4991145;28;20941;-47
2023/07/30 02:49:08;;;;;;;6.60;6.00;;;18.60;99.90;;;;;;4991700;28;20431;-47
2023/07/30 02:51:35;;;;;;;6.10;5.50;;;18.60;99.90;;;;;;5000247;28;20499;-48
2023/07/30 02:54:05;;;;;;;5.90;5.27;;;18.60;99.90;;;;;;4991317;28;20456;-48
2023/07/30 02:56:32;;;;;;;6.33;5.20;;;18.60;99.90;;;;;;4991345;28;20550;-48
2023/07/30 02:58:59;;;;;;;5.40;4.90;;;18.60;99.90;;;;;;4991138;28;20428;-47
2023/07/30 03:01:26;;;;;;;7.40;6.10;;;18.50;99.90;;;;;;4990379;28;20459;-48
2023/07/30 03:03:53;;;;;;;6.93;4.67;;;18.60;99.90;;;;;;4993026;28;20433;-48
2023/07/30 03:06:21;;;;;;;5.60;5.10;;;18.50;99.90;;;;;;4992684;28;20408;-48
2023/07/30 03:08:47;;;;;;;5.23;4.73;;;18.60;99.90;;;;;;4991009;28;20455;-48
2023/07/30 03:11:14;;;;;;;6.37;4.90;;;18.70;99.90;;;;;;4992386;28;20459;-48
2023/07/30 03:13:41;;;;;;;5.97;5.23;;;18.70;99.90;;;;;;4992650;28;20507;-48
2023/07/30 03:16:07;;;;;;;6.83;5.17;;;18.70;99.90;;;;;;4991417;28;20457;-46
2023/07/30 03:18:34;;;;;;;5.60;5.10;;;18.30;99.90;;;;;;4990771;28;20452;-48
2023/07/30 03:21:01;;;;;;;7.93;5.23;;;18.60;99.90;;;;;;4991038;28;20444;-47
2023/07/30 03:23:29;;;;;;;6.20;5.60;;;18.80;99.90;;;;;;4990898;28;20424;-48
2023/07/30 03:25:55;;;;;;;6.10;5.40;;;18.40;99.90;;;;;;4992675;28;20437;-48
2023/07/30 03:28:22;;;;;;;6.33;5.60;;;18.50;99.90;;;;;;4992054;28;20894;-48
2023/07/30 03:30:48;;;;;;;4.90;4.50;;;18.60;99.90;;;;;;4992396;28;20468;-48
2023/07/30 03:33:15;;;;;;;7.70;5.70;;;18.50;99.90;;;;;;4992385;28;20415;-47
2023/07/30 03:35:42;;;;;;;5.90;5.00;;;18.50;99.90;;;;;;4992237;28;20432;-47
2023/07/30 03:38:09;;;;;;;5.73;4.20;;;18.60;99.90;;;;;;4990676;28;20424;-47
2023/07/30 03:40:36;;;;;;;7.30;5.87;;;18.50;99.90;;;;;;5018353;23;20469;-57
2023/07/30 03:43:04;;;;;;;6.83;5.33;;;18.70;99.90;;;;;;4994428;28;21001;-56
2023/07/30 03:45:30;;;;;;;5.50;5.00;;;18.60;99.90;;;;;;5011908;28;20980;-57
2023/07/30 03:47:57;;;;;;;6.30;5.20;;;18.50;99.90;;;;;;4993876;28;20542;-56
2023/07/30 03:50:24;;;;;;;5.33;4.93;;;18.50;99.90;;;;;;5012201;28;20846;-58
2023/07/30 03:52:50;;;;;;;5.60;5.10;;;18.50;99.90;;;;;;4994109;28;20445;-57
2023/07/30 03:55:17;;;;;;;5.67;5.17;;;19.00;99.90;;;;;;5011821;28;20415;-56
2023/07/30 03:57:45;;;;;;;5.33;4.83;;;19.00;99.90;;;;;;4993745;28;20447;-58
2023/07/30 04:00:13;;;;;;;5.50;5.00;;;18.60;99.90;;;;;;5011702;28;20430;-58
2023/07/30 04:02:42;;;;;;;5.50;5.00;;;19.10;99.90;;;;;;5011817;28;20853;-57
2023/07/30 04:05:09;;;;;;;6.60;5.00;;;19.20;99.90;;;;;;5011613;28;20931;-58
2023/07/30 04:07:35;;;;;;;5.73;5.23;;;18.70;99.90;;;;;;5011327;28;20411;-58
2023/07/30 04:10:02;;;;;;;5.53;5.03;;;19.10;99.90;;;;;;4993901;28;20987;-57
2023/07/30 04:12:29;;;;;;;5.90;5.30;;;18.80;99.90;;;;;;4995713;28;20452;-58
2023/07/30 04:14:57;;;;;;;7.37;5.90;;;18.80;99.90;;;;;;4997511;28;20427;-58
2023/07/30 04:17:23;;;;;;;6.07;5.43;;;19.30;99.90;;;;;;5005958;28;20455;-58
2023/07/30 04:19:50;;;;;;;5.87;5.37;;;19.00;99.90;;;;;;4997658;28;20795;-56
2023/07/30 04:22:17;;;;;;;6.30;5.10;;;19.10;99.90;;;;;;4997336;28;20424;-56
2023/07/30 04:24:43;;;;;;;5.20;4.80;;;18.90;99.90;;;;;;4997408;28;20484;-56
2023/07/30 04:27:10;;;;;;;5.47;4.87;;;19.30;99.90;;;;;;4997044;28;20456;-58
2023/07/30 04:29:36;;;;;;;5.70;5.20;;;19.40;99.90;;;;;;5014812;28;20411;-57
2023/07/30 04:32:05;;;;;;;5.50;5.00;;;19.50;99.90;;;;;;4997213;28;20456;-57
2023/07/30 04:34:32;;;;;;;6.20;5.60;;;19.60;99.90;;;;;;4997198;28;20492;-58
2023/07/30 04:36:58;;;;;;;7.10;5.57;;;19.60;99.90;;;;;;5014406;28;20447;-57
2023/07/30 04:39:26;;;;;;;6.17;5.63;;;19.60;99.90;;;;;;4997011;28;21017;-58
2023/07/30 04:41:52;;;;;;;7.47;5.70;;;19.60;99.90;;;;;;4996881;28;20473;-56
2023/07/30 04:44:19;;;;;;;5.70;5.07;;;19.60;99.90;;;;;;5014686;28;20408;-57
2023/07/30 04:46:46;;;;;;;9.13;5.73;;;19.60;99.90;;;;;;5014049;28;20808;-57
2023/07/30 04:49:14;;;;;;;6.33;5.80;;;19.60;99.90;;;;;;4996867;28;20458;-58
2023/07/30 04:51:41;;;;;;;5.70;5.10;;;19.70;99.90;;;;;;4996586;28;20492;-58
2023/07/30 04:54:08;;;;;;;6.07;5.47;;;19.70;99.90;;;;;;4996895;28;20539;-57
2023/07/30 04:56:35;;;;;;;5.20;4.80;;;19.70;99.90;;;;;;4996571;28;20427;-57
2023/07/30 04:59:02;;;;;;;5.50;5.03;;;19.90;99.90;;;;;;4996379;28;20445;-57
2023/07/30 05:01:28;;;;;;;5.20;4.33;;;19.90;99.90;;;;;;5014122;28;20487;-57
2023/07/30 05:03:55;;;;;;;6.00;5.50;;;20.00;99.90;;;;;;5014100;28;20504;-54
2023/07/30 05:06:24;;;;;;;5.83;4.90;;;20.10;99.90;;;;;;5022815;28;20422;-58
2023/07/30 05:08:50;;;;;;;5.70;5.07;;;20.30;99.90;;;;;;5014572;28;20405;-57
2023/07/30 05:11:17;;;;;;;5.50;4.70;;;20.30;99.90;;;;;;4996429;28;20485;-57
2023/07/30 05:13:43;;;;;;;5.27;4.77;;;20.40;99.90;;;;;;5014093;28;20414;-57
2023/07/30 05:16:10;;;;;;;6.77;5.47;;;20.30;99.90;;;;;;5013920;28;20949;-57
2023/07/30 05:18:37;;;;;;;5.00;4.60;;;20.50;99.90;;;;;;5013505;28;20926;-58
2023/07/30 05:21:03;;;;;;;5.90;5.40;;;20.60;99.90;;;;;;5013882;28;20426;-55
2023/07/30 05:23:31;;;;;;;4.93;4.47;;;20.70;99.90;;;;;;5012919;28;20433;-57
2023/07/30 05:25:58;;;;;;;5.17;4.77;;;20.80;99.90;;;;;;5013822;28;20451;-57
2023/07/30 05:28:25;;;;;;;5.00;4.47;;;20.50;99.90;;;;;;5013318;28;20942;-57
2023/07/30 05:30:51;;;;;;;4.73;4.30;;;20.80;99.90;;;;;;5013430;28;20504;-57
2023/07/30 05:33:18;;;;;;;4.63;4.00;;;20.90;99.90;;;;;;5013655;28;20406;-56
2023/07/30 05:35:45;;;;;;;5.03;4.40;;;21.20;99.90;;;;;;5013498;28;20803;-57
2023/07/30 05:38:12;;;;;;;4.57;4.17;;;21.10;99.90;;;;;;5013252;28;20440;-56
2023/07/30 05:40:40;;;;;;;4.73;4.33;;;21.60;99.90;;;;;;5013504;28;20475;-56
2023/07/30 05:43:06;;;;;;;4.83;4.43;;;21.80;99.90;;;;;;5013309;28;20423;-56
2023/07/30 05:45:34;;;;;;;4.33;4.03;;;21.80;99.90;;;;;;5013254;28;20450;-56
2023/07/30 05:48:01;;;;;;;4.00;3.60;;;21.70;99.90;;;;;;5012878;28;20442;-56
2023/07/30 05:50:28;;;;;;;4.50;3.70;;;21.80;99.90;;;;;;5013262;28;20531;-57
2023/07/30 05:52:54;;;;;;;7.37;3.60;;;21.30;99.90;;;;;;5013219;28;20840;-57
2023/07/30 05:55:21;;;;;;;3.67;3.20;;;21.20;99.90;;;;;;5013345;28;20828;-58
2023/07/30 05:57:49;;;;;;;3.40;3.10;;;21.30;99.90;;;;;;5012668;28;20460;-57
2023/07/30 06:00:16;;;;;;;3.57;3.27;;;21.70;99.90;;;;;;5013055;28;20467;-57
2023/07/30 06:02:42;;;;;;;3.50;3.20;;;21.60;99.90;;;;;;5013017;28;20443;-56
2023/07/30 06:05:09;;;;;;;5.60;3.30;;;21.60;99.90;;;;;;5013105;28;20443;-57
2023/07/30 06:07:36;;;;;;;4.33;2.90;;;21.70;99.90;;;;;;5012613;28;20438;-56
2023/07/30 06:10:02;;;;;;;8.23;2.90;;;21.60;99.90;;;;;;4995343;28;20659;-57
2023/07/30 06:12:29;;;;;;;3.30;3.00;;;22.20;99.90;;;;;;5012863;28;20504;-57
2023/07/30 06:14:57;;;;;;;3.00;2.70;;;22.00;99.90;;;;;;5013061;28;20439;-56
2023/07/30 06:17:24;;;;;;;5.40;3.13;;;22.10;99.90;;;;;;5012390;28;20439;-58
2023/07/30 06:19:50;;;;;;;6.97;3.10;;;22.20;99.90;;;;;;5012893;28;20506;-57
2023/07/30 06:22:17;;;;;;;3.30;3.00;;;22.30;99.90;;;;;;5012802;28;20451;-57
2023/07/30 06:24:45;;;;;;;3.60;3.30;;;22.30;99.90;;;;;;5012764;28;20909;-56
2023/07/30 06:27:12;;;;;;;3.07;2.77;;;22.40;99.90;;;;;;5012224;28;20439;-56
2023/07/30 06:29:38;;;;;;;2.90;2.60;;;22.50;99.90;;;;;;5024795;28;20932;-57
2023/07/30 06:32:07;;;;;;;3.40;2.83;;;22.60;99.90;;;;;;5013302;28;20492;-56
2023/07/30 06:34:34;;;;;;;7.97;2.70;;;22.80;99.90;;;;;;5012417;28;20524;-57
2023/07/30 06:37:01;;;;;;;2.97;2.67;;;22.50;99.90;;;;;;5012080;28;20410;-56
2023/07/30 06:39:27;;;;;;;3.33;2.57;;;22.80;99.90;;;;;;5012478;28;20434;-57
2023/07/30 06:41:54;;;;;;;4.70;2.50;;;22.70;99.90;;;;;;5012321;28;20481;-57
2023/07/30 06:44:20;;;;;;;3.20;2.90;;;23.00;99.90;;;;;;4994691;28;20456;-58
2023/07/30 06:46:47;;;;;;;3.90;2.80;;;23.00;99.90;;;;;;5011923;28;20449;-57
2023/07/30 06:49:15;;;;;;;3.67;2.60;;;23.00;99.90;;;;;;5012368;28;20435;-57
2023/07/30 06:51:41;;;;;;;3.10;2.80;;;23.10;99.90;;;;;;5012016;28;21007;-57
2023/07/30 06:54:08;;;;;;;3.40;3.10;;;23.20;99.90;;;;;;5011975;28;20789;-56
2023/07/30 06:56:35;;;;;;;4.27;2.57;;;22.70;99.90;;;;;;5012025;28;20476;-57
2023/07/30 06:59:03;;;;;;;3.93;2.53;;;23.10;99.90;;;;;;5011844;28;20462;-57
2023/07/30 07:01:30;;;;;;;2.87;2.57;;;23.20;99.90;;;;;;5012007;28;20486;-58
2023/07/30 07:03:56;;;;;;;4.23;2.90;;;23.20;99.90;;;;;;5012456;28;20431;-56
2023/07/30 07:06:24;;;;;;;3.97;2.60;;;22.70;99.90;;;;;;5011787;28;20949;-58
2023/07/30 07:08:51;;;;;;;8.53;2.73;;;23.10;99.90;;;;;;5011986;28;20435;-57
2023/07/30 07:11:17;;;;;;;3.30;2.77;;;23.10;99.90;;;;;;4994067;28;20850;-57
2023/07/30 07:13:44;;;;;;;3.90;3.00;;;23.10;99.90;;;;;;4994311;28;21030;-57
2023/07/30 07:16:11;;;;;;;6.23;2.80;;;23.00;99.90;;;;;;5011894;28;20439;-57
2023/07/30 07:18:37;;;;;;;4.90;3.27;;;23.00;99.90;;;;;;5011563;28;20443;-57
2023/07/30 07:21:04;;;;;;;2.97;2.67;;;22.70;99.90;;;;;;5012336;28;21006;-58
2023/07/30 07:23:32;;;;;;;3.30;2.93;;;23.00;99.90;;;;;;5012059;28;20431;-57
2023/07/30 07:25:59;;;;;;;4.00;3.10;;;23.00;99.90;;;;;;5012228;28;20439;-58
2023/07/30 07:28:26;;;;;;;4.47;2.97;;;23.00;99.90;;;;;;5011679;28;20442;-58
2023/07/30 07:30:52;;;;;;;3.57;3.27;;;23.10;99.90;;;;;;5011991;28;20516;-57
2023/07/30 07:33:19;;;;;;;6.37;2.80;;;23.10;99.90;;;;;;5011902;28;20493;-58
2023/07/30 07:35:45;;;;;;;5.50;3.70;;;23.10;99.90;;;;;;5011855;28;20524;-57
2023/07/30 07:38:12;;;;;;;3.80;3.17;;;23.10;99.90;;;;;;5019611;28;20446;-58
2023/07/30 07:40:40;;;;;;;3.30;3.00;;;23.00;99.90;;;;;;5012252;28;20489;-57
2023/07/30 07:43:07;;;;;;;5.10;2.60;;;23.90;99.90;;;;;;5012032;28;20440;-58
2023/07/30 07:45:34;;;;;;;3.00;2.70;;;23.40;99.90;;;;;;5011690;28;20806;-57
2023/07/30 07:48:00;;;;;;;4.37;3.10;;;23.50;99.90;;;;;;5014486;28;20443;-58
2023/07/30 07:50:27;;;;;;;3.70;3.30;;;23.60;99.90;;;;;;5015410;28;20459;-57
2023/07/30 07:52:54;;;;;;;2.93;2.57;;;23.70;99.90;;;;;;5015484;28;20997;-58
2023/07/30 07:55:20;;;;;;;3.07;2.77;;;23.40;99.90;;;;;;5015346;28;21025;-59
2023/07/30 07:57:48;;;;;;;4.03;3.27;;;23.80;99.90;;;;;;5014979;28;20435;-58
2023/07/30 08:00:15;;;;;;;3.80;3.17;;;23.80;99.90;;;;;;5015287;28;20470;-56
2023/07/30 08:02:42;;;;;;;4.50;3.20;;;23.80;99.90;;;;;;5015241;28;20442;-57
2023/07/30 08:05:09;;;;;;;6.97;2.90;;;23.80;99.90;;;;;;5015301;28;20456;-58
2023/07/30 08:07:35;;;;;;;4.00;3.00;;;23.90;99.90;;;;;;5014746;28;20543;-57
2023/07/30 08:10:02;;;;;;;2.97;2.77;;;23.70;99.90;;;;;;5015042;28;20455;-57
2023/07/30 08:12:28;;;;;;;4.00;3.60;;;23.90;99.90;;;;;;5014937;28;20479;-57
2023/07/30 08:14:58;;;;;;;3.40;3.10;;;23.40;99.90;;;;;;5015132;28;20904;-57
2023/07/30 08:17:25;;;;;;;4.13;2.67;;;23.90;99.90;;;;;;5014764;28;20432;-57
2023/07/30 08:19:51;;;;;;;5.63;2.77;;;24.10;99.90;;;;;;5014668;28;20530;-57
2023/07/30 08:22:18;;;;;;;5.13;2.90;;;24.30;99.90;;;;;;5014748;28;20934;-57
2023/07/30 08:24:45;;;;;;;5.03;3.87;;;24.10;99.90;;;;;;5014896;28;20434;-56
2023/07/30 08:27:11;;;;;;;7.40;3.00;;;24.40;99.90;;;;;;5014465;28;20448;-57
2023/07/30 08:29:38;;;;;;;4.60;2.87;;;24.50;99.90;;;;;;5014710;28;20444;-58
2023/07/30 08:32:06;;;;;;;3.97;2.90;;;24.30;99.90;;;;;;5014429;28;21019;-58
2023/07/30 08:34:33;;;;;;;4.27;2.90;;;24.70;99.90;;;;;;5014670;28;20937;-58
2023/07/30 08:37:00;;;;;;;3.00;2.40;;;24.80;99.90;;;;;;5013959;28;20444;-58
2023/07/30 08:39:26;;;;;;;5.57;3.00;;;24.40;99.90;;;;;;5014645;28;20522;-57
2023/07/30 08:41:53;;;;;;;4.67;3.30;;;24.70;99.90;;;;;;5014470;28;20470;-57
2023/07/30 08:44:20;;;;;;;5.10;4.47;;;24.80;99.90;;;;;;5014344;28;20447;-58
2023/07/30 08:46:46;;;;;;;5.30;3.30;;;24.50;99.90;;;;;;5013834;28;20441;-57
2023/07/30 08:49:14;;;;;;;5.60;4.03;;;24.80;99.90;;;;;;5014469;28;20441;-57
2023/07/30 08:51:42;;;;;;;3.90;3.27;;;24.80;99.90;;;;;;5014169;28;20467;-57
2023/07/30 08:54:10;;;;;;;3.27;2.67;;;24.70;99.90;;;;;;5027332;28;20476;-57
2023/07/30 08:56:37;;;;;;;4.07;3.07;;;24.30;99.80;;;;;;5016291;28;20839;-55
2023/07/30 08:59:06;;;;;;;4.47;3.20;;;24.40;99.80;;;;;;5014478;28;20432;-57
2023/07/30 09:01:40;;;;;;;3.63;2.43;;;24.30;99.80;;;;;;5014215;28;20464;-58
2023/07/30 09:04:08;;;;;;;3.53;3.07;;;24.30;99.80;;;;;;5014063;28;20441;-57
2023/07/30 09:06:38;;;;;;;4.50;3.10;;;24.30;99.90;;;;;;5014155;28;20951;-57
2023/07/30 09:09:05;;;;;;;5.20;3.20;;;24.30;99.80;;;;;;5013841;28;20812;-57
2023/07/30 09:11:32;;;;;;;2.80;2.30;;;24.40;99.50;;;;;;5013761;28;20465;-57
2023/07/30 09:14:02;;;;;;;7.27;3.10;;;24.20;98.90;;;;;;5013818;28;20473;-57
2023/07/30 09:16:29;;;;;;;3.40;2.73;;;24.10;98.30;;;;;;5013788;28;20436;-58
2023/07/30 09:18:55;;;;;;;3.13;2.83;;;24.50;98.30;;;;;;5013261;28;20542;-56
2023/07/30 09:21:30;;;;;;;4.70;2.70;;;24.60;98.00;;;;;;5013541;28;20497;-57
2023/07/30 09:24:03;;;;;;;4.17;2.43;;;24.80;97.60;;;;;;4995576;28;20462;-60
2023/07/30 09:26:30;;;;;;;3.70;2.53;;;24.90;97.20;;;;;;5013422;28;20505;-58
2023/07/30 09:28:56;;;;;;;5.00;2.67;;;24.90;97.00;;;;;;5013321;28;20440;-57
2023/07/30 09:31:23;;;;;;;3.53;2.80;;;25.00;96.70;;;;;;4996243;28;20468;-57
2023/07/30 09:33:50;;;;;;;4.27;2.90;;;25.00;96.60;;;;;;5013565;28;20479;-57
2023/07/30 09:36:19;;;;;;;2.67;2.43;;;25.10;96.50;;;;;;5013510;28;20447;-56
2023/07/30 09:38:46;;;;;;;5.77;2.83;;;24.90;96.30;;;;;;5013031;28;20440;-58
2023/07/30 09:41:15;;;;;;;4.20;2.57;;;25.00;96.20;;;;;;5013745;28;20472;-59
2023/07/30 09:43:41;;;;;;;7.40;3.20;;;24.90;96.40;;;;;;5013073;28;20469;-60
2023/07/30 09:46:08;;;;;;;4.00;2.93;;;24.80;96.30;;;;;;5012907;28;20939;-60
2023/07/30 09:48:35;;;;;;;5.30;2.37;;;24.70;96.10;;;;;;5012584;28;20443;-60
2023/07/30 09:51:04;;;;;;;5.50;2.70;;;24.60;95.90;;;;;;5013200;28;20543;-59
2023/07/30 09:53:34;;;;;;;3.63;2.60;;;24.50;95.90;;;;;;5013005;28;20480;-59
2023/07/30 09:56:01;;;;;;;4.27;2.70;;;24.50;95.80;;;;;;5012846;28;20439;-59
2023/07/30 09:58:29;;;;;;;5.97;2.60;;;24.50;95.60;;;;;;5012837;28;20459;-59
2023/07/30 10:00:58;;;;;;;3.10;2.50;;;24.50;94.80;;;;;;5015718;28;20542;-59
2023/07/30 10:03:25;;;;;;;4.00;2.30;;;24.40;95.30;;;;;;5023185;28;20439;-60
2023/07/30 10:05:55;;;;;;;5.60;2.63;;;24.50;95.40;;;;;;5013470;28;20442;-59
2023/07/30 10:08:25;;;;;;;4.67;2.70;;;24.40;95.40;;;;;;5012916;28;20444;-61
2023/07/30 10:10:54;;;;;;;4.83;3.00;;;24.70;95.50;;;;;;5012248;28;20467;-62
2023/07/30 10:13:21;;;;;;;3.27;2.70;;;24.70;95.40;;;;;;5013086;28;20472;-58
2023/07/30 10:15:49;;;;;;;3.73;3.00;;;25.00;95.50;;;;;;5012660;28;20433;-61
2023/07/30 10:18:16;;;;;;;4.73;2.67;;;25.10;95.40;;;;;;5012390;28;20527;-61
2023/07/30 10:20:53;;;;;;;5.90;2.80;;;24.90;95.20;;;;;;5012622;28;20448;-60
2023/07/30 10:23:19;;;;;;;3.70;2.20;;;25.20;95.10;;;;;;5012712;28;20433;-59
2023/07/30 10:25:47;;;;;;;2.67;2.27;;;25.30;94.60;;;;;;5012958;28;20441;-59
2023/07/30 10:28:33;;;;;;;3.80;2.57;;;25.30;94.20;;;;;;5011941;28;20439;-59
2023/07/30 10:31:03;;;;;;;3.27;2.57;;;25.10;93.30;;;;;;5012517;28;20495;-60
2023/07/30 10:33:47;;;;;;;3.33;2.30;;;25.40;93.40;;;;;;5012176;28;20499;-60
2023/07/30 10:36:15;;;;;;;5.10;2.63;;;25.20;92.80;;;;;;5012339;28;20431;-59
2023/07/30 10:38:42;;;;;;;7.33;2.63;;;25.50;92.90;;;;;;5012208;28;20446;-61
2023/07/30 10:41:11;;;;;;;3.73;2.60;;;25.50;92.70;;;;;;4994547;28;20479;-60
2023/07/30 10:43:40;;;;;;;3.23;2.53;;;25.60;92.30;;;;;;5012104;28;20506;-60
2023/07/30 10:46:09;;;;;;;3.97;2.20;;;25.60;91.60;;;;;;5012204;28;20779;-59
2023/07/30 10:48:37;;;;;;;3.10;2.00;;;25.30;90.80;;;;;;5017787;28;20428;-60
2023/07/30 10:51:06;;;;;;;6.70;2.60;;;25.80;90.70;;;;;;5012869;28;20463;-60
2023/07/30 10:53:35;;;;;;;3.77;2.90;;;25.80;90.80;;;;;;5012296;28;20472;-60
2023/07/30 10:56:03;;;;;;;3.77;3.07;;;25.70;90.70;;;;;;5012449;28;20791;-61
2023/07/30 10:58:30;;;;;;;3.60;2.17;;;25.90;90.60;;;;;;5011863;28;20440;-60
2023/07/30 11:00:58;;;;;;;5.23;2.80;;;26.00;90.70;;;;;;5012450;28;20448;-59
2023/07/30 11:03:27;;;;;;;3.10;2.20;;;26.10;90.90;;;;;;5012713;28;20435;-58
2023/07/30 11:05:54;;;;;;;6.73;2.57;;;26.20;90.10;;;;;;5011870;28;20439;-59
2023/07/30 11:08:32;;;;;;;2.83;2.20;;;26.30;89.50;;;;;;5011438;28;20437;-60
2023/07/30 11:10:59;;;;;;;4.07;2.30;;;26.40;89.00;;;;;;5011887;28;20467;-59
2023/07/30 11:13:25;;;;;;;3.97;2.20;;;26.50;88.10;;;;;;5011829;28;20484;-59
2023/07/30 11:15:52;;;;;;;3.63;2.17;;;26.60;86.60;;;;;;5011627;28;20434;-59
2023/07/30 11:18:19;;;;;;;4.70;2.40;;;26.60;85.30;;;;;;5011631;28;20444;-59
2023/07/30 11:20:47;;;;;;;3.97;2.40;;;26.20;84.40;;;;;;5011987;28;20458;-60
2023/07/30 11:23:21;;;;;;;3.63;2.43;;;26.60;84.40;;;;;;5015035;28;20428;-60
2023/07/30 11:25:49;;;;;;;5.00;2.27;;;26.60;83.90;;;;;;5015863;28;20839;-59
2023/07/30 11:28:27;;;;;;;4.63;2.53;;;26.60;83.10;;;;;;5017454;28;20442;-58
2023/07/30 11:30:54;;;;;;;3.17;2.10;;;26.40;81.70;;;;;;5018978;28;20820;-58
2023/07/30 11:33:21;;;;;;;6.97;2.83;;;26.70;81.10;;;;;;5015689;28;20476;-60
2023/07/30 11:35:49;;;;;;;5.60;2.10;;;26.60;80.10;;;;;;5015799;28;20931;-60
2023/07/30 11:38:17;;;;;;;5.03;2.40;;;26.70;80.60;;;;;;5015600;28;20439;-60
2023/07/30 11:40:44;;;;;;;2.70;2.20;;;26.70;79.90;;;;;;5015580;28;20470;-60
2023/07/30 11:43:11;;;;;;;5.57;2.70;;;26.60;78.80;;;;;;5015698;28;20429;-59
2023/07/30 11:45:37;;;;;;;4.37;2.47;;;26.50;78.00;;;;;;5015442;28;20780;-60
2023/07/30 11:48:09;;;;;;;5.43;2.07;;;26.50;77.40;;;;;;5015317;28;20787;-61
2023/07/30 11:50:46;;;;;;;4.13;2.37;;;26.50;76.50;;;;;;5015416;28;20555;-61
2023/07/30 11:53:14;;;;;;;4.47;3.93;;;26.10;75.20;;;;;;5015110;28;20475;-59
2023/07/30 11:55:42;;;;;;;3.30;2.30;;;26.40;75.10;;;;;;5015185;28;20821;-59
2023/07/30 11:58:10;;;;;;;6.27;5.20;;;26.20;74.40;;;;;;5014814;28;20439;-58
2023/07/30 12:00:38;;;;;;;5.40;3.00;;;26.40;75.20;;;;;;5015209;28;20470;-59
2023/07/30 12:03:07;;;;;;;4.20;3.00;;;26.50;75.70;;;;;;5015277;28;20436;-60
2023/07/30 12:05:34;;;;;;;3.30;1.93;;;26.10;75.50;;;;;;5017011;28;20436;-59
2023/07/30 12:08:03;;;;;;;5.70;2.60;;;26.40;75.10;;;;;;5017656;28;20446;-59
2023/07/30 12:10:42;;;;;;;6.00;2.27;;;26.00;74.90;;;;;;5015088;28;20494;-59
2023/07/30 12:13:12;;;;;;;5.40;2.27;;;26.30;74.80;;;;;;5015114;28;20585;-59
2023/07/30 12:15:39;;;;;;;5.70;2.10;;;26.30;75.20;;;;;;5014773;28;20950;-60
2023/07/30 12:18:05;;;;;;;3.67;2.30;;;26.30;76.10;;;;;;5015037;28;20459;-60
2023/07/30 12:20:32;;;;;;;6.13;2.57;;;26.30;74.50;;;;;;5014448;28;20456;-60
2023/07/30 12:22:58;;;;;;;7.43;2.67;;;25.90;73.80;;;;;;5014905;28;20926;-60
2023/07/30 12:25:25;;;;;;;3.63;2.50;;;26.30;74.30;;;;;;5014708;28;20935;-60
2023/07/30 12:27:53;;;;;;;6.10;2.40;;;26.40;74.70;;;;;;5014278;28;20440;-60
2023/07/30 12:30:20;;;;;;;5.80;2.60;;;26.40;73.80;;;;;;5014847;28;20955;-59
2023/07/30 12:32:46;;;;;;;4.80;2.10;;;26.50;73.90;;;;;;5014586;28;20456;-59
2023/07/30 12:35:13;;;;;;;4.33;2.40;;;26.30;73.10;;;;;;5014721;28;20962;-60
2023/07/30 12:37:40;;;;;;;4.77;2.37;;;26.70;72.70;;;;;;5014011;28;20440;-57
2023/07/30 12:40:08;;;;;;;3.67;3.10;;;26.70;71.80;;;;;;5014286;28;20538;-60
2023/07/30 12:42:35;;;;;;;5.10;3.30;;;26.90;71.80;;;;;;5014179;28;20455;-60
2023/07/30 12:45:03;;;;;;;3.40;2.27;;;27.00;71.60;;;;;;5020210;28;20437;-62
2023/07/30 12:47:30;;;;;;;3.10;2.20;;;27.00;71.80;;;;;;5014945;28;20955;-61
2023/07/30 12:49:56;;;;;;;4.53;2.77;;;27.00;71.90;;;;;;5014414;28;21028;-61